EFD weather

Ellington Airport
Houston, Texas, United States

Public forecast

Using degrees Fahrenheit for public forecast. Weather courtesy of forecast.io.

METAR (pilot weather report)

Retrieved 2019/09/17 22:50 UTC (55 minutes ago):

KEFD 172250Z 12019G27KT 2SM RA OVC012 24/23 A2974

TAF (pilot weather forecast)

Retrieved 2019/09/17 20:03 UTC (4 hours ago):

TAF KEFD 172000Z 1720/1902 10010G15KT 8000 -SHRA VCTS BKN010CB OVC030 QNH2976INS TEMPO 1720/1802 10015G25KT 4800 TSRA BKN010CB OVC025 BECMG 1804/1805 14010KT 8000 -SHRA BKN007 OVC025 QNH2979INS BECMG 1806/1807 16010G15KT 4800 SHRA OVC007 QNH2977INS TEMPO 1820/1901 16010G20KT 8000 -TSRA BKN010CB OVC035 TX27/1820Z TN23/1812Z